Time;durP1;ratioP1;P1;durP2;ratioP2;P2;SDS_P1;SDS_P2;PMS_P1;PMS_P2;Temp;Humidity;BMP_temperature;BMP_pressure;BME280_temperature;BME280_humidity;BME280_pressure;Samples;Min_cycle;Max_cycle;Signal;HPM_P1;HPM_P2
2022/06/12 00:00:04;;;;;;;1999.90;999.90;;;19.50;99.90;;;;;;4973469;28;20416;-74
2022/06/12 00:02:30;;;;;;;1999.90;999.90;;;19.50;99.90;;;;;;4973447;28;20185;-74
2022/06/12 00:04:55;;;;;;;1999.90;999.90;;;19.50;99.90;;;;;;4973260;28;20571;-74
2022/06/12 00:07:21;;;;;;;1999.90;999.90;;;19.50;99.90;;;;;;4973182;28;20634;-74
2022/06/12 00:09:46;;;;;;;1999.90;999.90;;;19.40;99.90;;;;;;4973351;28;20179;-74
2022/06/12 00:12:12;;;;;;;1999.90;999.90;;;19.20;99.90;;;;;;4975430;28;20173;-74
2022/06/12 00:14:38;;;;;;;1999.90;999.90;;;19.10;99.90;;;;;;4977679;28;20273;-74
2022/06/12 00:17:04;;;;;;;1999.90;999.90;;;19.10;99.90;;;;;;4978135;28;20259;-75
2022/06/12 00:19:30;;;;;;;1999.90;999.90;;;18.90;99.90;;;;;;4978898;28;20410;-74
2022/06/12 00:21:56;;;;;;;1999.90;999.90;;;18.70;99.90;;;;;;4979306;28;20237;-75
2022/06/12 00:24:23;;;;;;;1999.90;999.90;;;18.50;99.90;;;;;;4979043;28;20452;-74
2022/06/12 00:26:53;;;;;;;1999.90;999.90;;;18.40;99.90;;;;;;4979162;28;20524;-74
2022/06/12 00:29:32;;;;;;;1999.90;999.90;;;18.40;99.90;;;;;;4980246;28;20407;-75
2022/06/12 00:32:06;;;;;;;1999.90;999.90;;;18.30;99.90;;;;;;4979357;28;20429;-75
2022/06/12 00:34:38;;;;;;;1999.90;999.90;;;18.30;99.90;;;;;;4978519;28;20438;-74
2022/06/12 00:37:05;;;;;;;1999.90;999.90;;;18.30;99.90;;;;;;4979916;28;20500;-75
2022/06/12 00:39:32;;;;;;;1999.90;999.90;;;18.30;99.90;;;;;;4978584;28;20947;-74
2022/06/12 00:42:00;;;;;;;1999.90;999.90;;;18.30;99.90;;;;;;4979568;28;20461;-75
2022/06/12 00:44:31;;;;;;;1999.90;999.90;;;18.30;99.90;;;;;;4975979;28;20805;-75
2022/06/12 00:47:00;;;;;;;1999.90;999.90;;;18.40;99.90;;;;;;4972875;28;20813;-75
2022/06/12 00:49:29;;;;;;;1999.90;999.90;;;18.40;99.90;;;;;;4972897;28;20411;-75
2022/06/12 00:52:03;;;;;;;1999.90;999.90;;;18.40;99.90;;;;;;4973028;28;20470;-75
2022/06/12 00:54:30;;;;;;;1999.90;999.90;;;18.40;99.90;;;;;;4973042;28;20430;-75
2022/06/12 00:56:59;;;;;;;1999.90;999.90;;;18.40;99.90;;;;;;4972676;28;20411;-75
2022/06/12 00:59:36;;;;;;;1999.90;999.90;;;18.50;99.90;;;;;;4973218;28;20415;-75
2022/06/12 01:02:05;;;;;;;1999.90;999.90;;;18.50;99.90;;;;;;4972898;28;20472;-75
2022/06/12 01:07:19;;;;;;;1999.90;999.90;;;18.40;99.90;;;;;;4972703;28;20454;-75
2022/06/12 01:09:48;;;;;;;1999.90;999.90;;;18.40;99.90;;;;;;4972854;28;20466;-75
2022/06/12 01:12:18;;;;;;;1999.90;999.90;;;18.40;99.90;;;;;;4972745;28;20962;-75
2022/06/12 01:14:51;;;;;;;1999.90;999.90;;;18.40;99.90;;;;;;4972948;28;20964;-75
2022/06/12 01:17:19;;;;;;;1999.90;999.90;;;18.40;99.90;;;;;;4977097;28;20424;-75
2022/06/12 01:19:53;;;;;;;1999.90;999.90;;;18.40;99.90;;;;;;4980297;28;20778;-74
2022/06/12 01:22:34;;;;;;;1999.90;999.90;;;18.30;99.90;;;;;;4979817;28;20467;-75
2022/06/12 01:25:02;;;;;;;1999.90;999.90;;;18.30;99.90;;;;;;4982153;28;20429;-74
2022/06/12 01:27:58;;;;;;;1999.90;999.90;;;18.10;99.90;;;;;;4984008;28;20421;-75
2022/06/12 01:30:28;;;;;;;1999.90;999.90;;;17.90;99.90;;;;;;4984021;28;20408;-75
2022/06/12 01:33:25;;;;;;;1999.90;999.90;;;17.70;99.90;;;;;;4985299;28;20428;-75
2022/06/12 01:36:17;;;;;;;1999.90;999.90;;;17.60;99.90;;;;;;4984841;28;20416;-75
2022/06/12 01:39:07;;;;;;;1999.90;999.90;;;17.60;99.90;;;;;;4983735;28;20768;-74
2022/06/12 01:41:58;;;;;;;1999.90;999.90;;;17.40;99.90;;;;;;4982672;28;20456;-75
2022/06/12 01:44:37;;;;;;;1999.90;999.90;;;17.40;99.90;;;;;;4983558;28;20446;-75
2022/06/12 01:47:21;;;;;;;1999.90;999.90;;;17.30;99.90;;;;;;4983045;28;20421;-75
2022/06/12 01:50:05;;;;;;;1999.90;999.90;;;17.30;99.90;;;;;;4982343;28;20411;-75
2022/06/12 01:52:46;;;;;;;1999.90;999.90;;;17.30;99.90;;;;;;4982957;28;20417;-74
2022/06/12 01:55:47;;;;;;;1999.90;999.90;;;17.30;99.90;;;;;;4981919;28;20440;-74
2022/06/12 01:58:19;;;;;;;1999.90;999.90;;;17.20;99.90;;;;;;4953946;28;20440;-75
2022/06/12 02:00:54;;;;;;;1999.90;999.90;;;17.00;99.90;;;;;;4981758;28;20453;-74
2022/06/12 02:03:31;;;;;;;1999.90;999.90;;;16.80;99.90;;;;;;4980588;28;20431;-74
2022/06/12 02:06:11;;;;;;;1999.90;999.90;;;16.80;99.90;;;;;;4981429;28;20424;-74
2022/06/12 02:08:47;;;;;;;1999.90;999.90;;;16.80;99.90;;;;;;4981603;28;20474;-75
2022/06/12 02:14:10;;;;;;;1999.90;999.90;;;16.80;99.90;;;;;;4981857;28;20449;-75
2022/06/12 02:16:41;;;;;;;1999.90;999.90;;;16.60;99.90;;;;;;4980615;28;20438;-74
2022/06/12 02:19:14;;;;;;;1999.90;999.90;;;16.60;99.90;;;;;;4980943;28;20412;-75
2022/06/12 02:21:48;;;;;;;1999.90;999.90;;;16.60;99.90;;;;;;4981216;28;20484;-74
2022/06/12 02:24:27;;;;;;;1999.90;999.90;;;16.60;99.90;;;;;;4980679;28;20432;-74
2022/06/12 02:27:13;;;;;;;1999.90;999.90;;;16.60;99.90;;;;;;4980662;28;20413;-75
2022/06/12 02:29:49;;;;;;;1999.90;999.90;;;16.60;99.90;;;;;;4980893;28;20442;-74
2022/06/12 02:32:31;;;;;;;1999.90;999.90;;;16.60;99.90;;;;;;4980045;28;20776;-74
2022/06/12 02:35:12;;;;;;;1999.90;999.90;;;16.50;99.90;;;;;;4978809;28;20481;-74
2022/06/12 02:37:44;;;;;;;1999.90;999.90;;;16.50;99.90;;;;;;4979141;28;20757;-74
2022/06/12 02:40:21;;;;;;;1999.90;999.90;;;16.50;99.90;;;;;;4980404;28;21081;-74
2022/06/12 02:42:49;;;;;;;1999.90;999.90;;;16.40;99.90;;;;;;4980773;28;20422;-74
2022/06/12 02:45:25;;;;;;;1999.90;999.90;;;16.30;99.90;;;;;;4979742;28;20989;-75
2022/06/12 02:47:51;;;;;;;1999.90;999.90;;;16.30;99.90;;;;;;4979057;28;20416;-74
2022/06/12 02:50:22;;;;;;;1999.90;999.90;;;16.20;99.90;;;;;;4979102;28;20440;-74
2022/06/12 02:53:05;;;;;;;1999.90;999.90;;;16.20;99.90;;;;;;4975410;28;20422;-74
2022/06/12 02:56:12;;;;;;;1999.90;999.90;;;16.10;99.90;;;;;;4974657;28;20415;-74
2022/06/12 02:58:54;;;;;;;1999.90;999.90;;;16.00;99.90;;;;;;4964439;28;20429;-74
2022/06/12 03:01:29;;;;;;;1999.90;999.90;;;15.90;99.90;;;;;;4974478;28;21245;-74
2022/06/12 03:04:05;;;;;;;1999.90;999.90;;;15.90;99.90;;;;;;4974434;28;20432;-74
2022/06/12 03:06:31;;;;;;;1999.90;999.90;;;15.90;99.90;;;;;;4974136;28;20405;-74
2022/06/12 03:08:58;;;;;;;1999.90;999.90;;;15.80;99.90;;;;;;4974469;28;20470;-74
2022/06/12 03:11:36;;;;;;;1999.90;999.90;;;15.80;99.90;;;;;;4974419;28;20409;-74
2022/06/12 03:14:08;;;;;;;1999.90;999.90;;;15.70;99.90;;;;;;4974197;28;20438;-74
2022/06/12 03:16:37;;;;;;;1999.90;999.90;;;15.70;99.90;;;;;;4973901;28;20422;-74
2022/06/12 03:19:28;;;;;;;1999.90;999.90;;;15.60;99.90;;;;;;4974151;28;20402;-74
2022/06/12 03:22:16;;;;;;;1999.90;999.90;;;15.60;99.90;;;;;;4974104;28;20917;-74
2022/06/12 03:25:16;;;;;;;1999.90;999.90;;;15.60;99.90;;;;;;4974530;28;20418;-74
2022/06/12 03:27:57;;;;;;;1999.90;999.90;;;15.60;99.90;;;;;;4973776;28;20905;-74
2022/06/12 03:30:31;;;;;;;1999.90;999.90;;;15.60;99.90;;;;;;4973916;28;20408;-74
2022/06/12 03:33:21;;;;;;;1999.90;999.90;;;15.70;99.90;;;;;;4973990;28;20536;-73
2022/06/12 03:35:48;;;;;;;1999.90;999.90;;;15.60;99.90;;;;;;4974187;28;20956;-74
2022/06/12 03:38:21;;;;;;;1999.90;999.90;;;15.60;99.90;;;;;;4973627;28;20410;-74
2022/06/12 03:40:56;;;;;;;1999.90;999.90;;;15.40;99.90;;;;;;4973758;28;20459;-74
2022/06/12 03:43:37;;;;;;;1999.90;999.90;;;15.40;99.90;;;;;;4973519;28;20492;-74
2022/06/12 03:46:45;;;;;;;1999.90;999.90;;;15.30;99.90;;;;;;4973159;28;20403;-74
2022/06/12 03:49:11;;;;;;;1999.90;999.90;;;15.30;99.90;;;;;;4960795;28;20948;-74
2022/06/12 03:51:53;;;;;;;1999.90;999.90;;;15.10;99.90;;;;;;4973636;28;20414;-74
2022/06/12 03:54:33;;;;;;;1999.90;999.90;;;15.00;99.90;;;;;;4973579;28;20193;-74
2022/06/12 04:00:04;;;;;;;1999.90;999.90;;;15.10;99.90;;;;;;4973448;28;20455;-74
2022/06/12 04:02:32;;;;;;;1999.90;999.90;;;15.20;99.90;;;;;;4973379;28;20487;-74
2022/06/12 04:04:59;;;;;;;1999.90;999.90;;;15.20;99.90;;;;;;4973427;28;20433;-74
2022/06/12 04:07:28;;;;;;;1999.90;999.90;;;15.30;99.90;;;;;;4973161;28;20398;-74
2022/06/12 04:09:57;;;;;;;1999.90;999.90;;;15.30;99.90;;;;;;4973472;28;20403;-74
2022/06/12 04:12:30;;;;;;;1999.90;999.90;;;15.50;99.90;;;;;;4973333;28;20413;-74
2022/06/12 04:15:15;;;;;;;1999.90;999.90;;;15.60;99.90;;;;;;4973123;28;20431;-74
2022/06/12 04:17:42;;;;;;;1999.90;999.90;;;15.60;99.90;;;;;;4973104;28;20411;-74
2022/06/12 04:20:30;;;;;;;1999.90;999.90;;;15.70;99.90;;;;;;4973319;28;20783;-74
2022/06/12 04:23:07;;;;;;;1999.90;999.90;;;15.80;99.90;;;;;;4973295;28;20412;-74
2022/06/12 04:26:13;;;;;;;1999.90;999.90;;;15.90;99.90;;;;;;4973424;28;20430;-74
2022/06/12 04:28:43;;;;;;;1999.90;999.90;;;15.70;99.90;;;;;;4934938;28;20418;-74
2022/06/12 04:31:18;;;;;;;1999.90;999.90;;;15.70;99.90;;;;;;4973149;28;20492;-73
2022/06/12 04:34:03;;;;;;;1999.90;999.90;;;15.90;99.90;;;;;;4973184;28;20425;-75
2022/06/12 04:36:28;;;;;;;1999.90;999.90;;;15.90;99.90;;;;;;4973132;28;21090;-74
2022/06/12 04:38:54;;;;;;;1999.90;999.90;;;16.00;99.90;;;;;;4973232;28;20403;-75
2022/06/12 04:41:29;;;;;;;1999.90;999.90;;;16.00;99.90;;;;;;4973112;28;20263;-75
2022/06/12 04:43:54;;;;;;;1999.90;999.90;;;16.00;99.90;;;;;;4972911;28;20205;-75
2022/06/12 04:46:22;;;;;;;1999.90;999.90;;;16.00;99.90;;;;;;4972832;28;20932;-74
2022/06/12 04:48:51;;;;;;;1999.90;999.90;;;16.00;99.90;;;;;;4973145;28;20406;-75
2022/06/12 04:51:18;;;;;;;1999.90;999.90;;;16.00;99.90;;;;;;4973061;28;20563;-75
2022/06/12 04:53:45;;;;;;;1999.90;999.90;;;16.00;99.90;;;;;;4973107;28;20431;-75
2022/06/12 04:56:12;;;;;;;1999.90;999.90;;;16.00;99.90;;;;;;4972727;28;20417;-75
2022/06/12 04:58:38;;;;;;;1999.90;999.90;;;15.90;99.90;;;;;;4975868;28;20412;-75
2022/06/12 05:01:04;;;;;;;1999.90;999.90;;;16.00;99.90;;;;;;4976873;28;20512;-75
2022/06/12 05:03:30;;;;;;;1999.90;999.90;;;16.10;99.90;;;;;;4976714;28;20505;-75
2022/06/12 05:05:56;;;;;;;1999.90;999.90;;;16.10;99.90;;;;;;4976512;28;20402;-75
2022/06/12 05:08:22;;;;;;;1999.90;999.90;;;16.10;99.90;;;;;;4976517;28;20230;-76
2022/06/12 05:10:48;;;;;;;1999.90;999.90;;;16.10;99.90;;;;;;4976526;28;20416;-75
2022/06/12 05:13:15;;;;;;;1999.90;999.90;;;16.10;99.90;;;;;;4976509;28;20172;-74
2022/06/12 05:15:43;;;;;;;1999.90;999.90;;;16.10;99.90;;;;;;4983565;28;20410;-74
2022/06/12 05:18:11;;;;;;;1999.90;999.90;;;16.20;99.90;;;;;;4976742;28;20411;-74
2022/06/12 05:20:37;;;;;;;1999.90;999.90;;;16.20;99.90;;;;;;4976290;28;20579;-74
2022/06/12 05:23:04;;;;;;;1999.90;999.90;;;16.20;99.90;;;;;;4976238;28;20908;-74
2022/06/12 05:25:30;;;;;;;1999.90;999.90;;;16.30;99.90;;;;;;4976215;28;20816;-74
2022/06/12 05:27:57;;;;;;;1999.90;999.90;;;16.40;99.90;;;;;;4975846;28;20435;-74
2022/06/12 05:30:25;;;;;;;1999.90;999.90;;;16.40;99.90;;;;;;4976166;28;20416;-74
2022/06/12 05:32:53;;;;;;;1999.90;999.90;;;16.40;99.90;;;;;;4976186;28;20405;-74
2022/06/12 05:35:20;;;;;;;1999.90;999.90;;;16.40;99.90;;;;;;4975962;28;20793;-74
2022/06/12 05:37:46;;;;;;;1999.90;999.90;;;16.50;99.90;;;;;;4975856;28;20402;-74
2022/06/12 05:40:17;;;;;;;1999.90;999.90;;;16.50;99.90;;;;;;4976033;28;20482;-74
2022/06/12 05:42:42;;;;;;;1999.90;999.90;;;16.50;99.90;;;;;;4975909;28;20423;-74
2022/06/12 05:45:13;;;;;;;1999.90;999.90;;;16.50;99.90;;;;;;4976194;28;20503;-76
2022/06/12 05:47:52;;;;;;;1999.90;999.90;;;16.50;99.90;;;;;;4975788;28;20196;-75
2022/06/12 05:50:20;;;;;;;1999.90;999.90;;;16.50;99.90;;;;;;4976076;28;20467;-75
2022/06/12 05:52:46;;;;;;;1999.90;999.90;;;16.60;99.90;;;;;;4981817;28;20796;-75
2022/06/12 05:55:12;;;;;;;1999.90;999.90;;;16.70;99.90;;;;;;4986675;28;20434;-74
2022/06/12 05:57:39;;;;;;;1999.90;999.90;;;16.70;99.90;;;;;;4972059;28;20411;-74
2022/06/12 06:00:08;;;;;;;1999.90;999.90;;;16.80;99.90;;;;;;4975245;28;20412;-73
2022/06/12 06:02:34;;;;;;;1999.90;999.90;;;16.80;99.90;;;;;;4975287;28;20463;-74
2022/06/12 06:05:01;;;;;;;1999.90;999.90;;;16.90;99.90;;;;;;4974793;28;20484;-74
2022/06/12 06:07:26;;;;;;;1999.90;999.90;;;16.90;99.90;;;;;;4974989;28;20781;-73
2022/06/12 06:09:52;;;;;;;1999.90;999.90;;;17.00;99.90;;;;;;4975039;28;20406;-73
2022/06/12 06:12:18;;;;;;;1999.90;999.90;;;17.10;99.90;;;;;;4974943;28;20177;-73
2022/06/12 06:14:43;;;;;;;1999.90;999.90;;;17.20;99.90;;;;;;4975068;28;20626;-73
2022/06/12 06:17:09;;;;;;;1999.90;999.90;;;17.20;99.90;;;;;;4974847;28;20808;-74
2022/06/12 06:19:35;;;;;;;1999.90;999.90;;;17.30;99.90;;;;;;4974682;28;20252;-73
2022/06/12 06:22:01;;;;;;;1999.90;999.90;;;17.40;99.90;;;;;;4974778;28;20201;-73
2022/06/12 06:24:27;;;;;;;1999.90;999.90;;;17.40;99.90;;;;;;4974836;28;20432;-73
2022/06/12 06:26:52;;;;;;;1999.90;999.90;;;17.50;99.90;;;;;;4974233;28;20647;-73
2022/06/12 06:29:18;;;;;;;1999.90;999.90;;;17.60;99.90;;;;;;4974834;28;20169;-73
2022/06/12 06:31:43;;;;;;;1999.90;999.90;;;17.70;99.90;;;;;;4974616;28;20266;-73
2022/06/12 06:34:09;;;;;;;1999.90;999.90;;;17.70;99.90;;;;;;4974725;28;20200;-72
2022/06/12 06:36:35;;;;;;;1999.90;999.90;;;17.80;99.90;;;;;;4974455;28;20180;-73
2022/06/12 06:39:01;;;;;;;1999.90;999.90;;;17.80;99.90;;;;;;4974712;28;20484;-73
2022/06/12 06:41:27;;;;;;;1999.90;999.90;;;17.90;99.90;;;;;;4974129;28;20571;-73
2022/06/12 06:46:38;;;;;;;1999.90;999.90;;;18.00;99.90;;;;;;4974582;28;20658;-73
2022/06/12 06:49:04;;;;;;;1999.90;999.90;;;18.10;99.90;;;;;;4974143;28;20453;-73
2022/06/12 06:51:30;;;;;;;1999.90;999.90;;;18.20;99.90;;;;;;4974284;28;20418;-73
2022/06/12 06:53:56;;;;;;;1999.90;999.90;;;18.20;99.90;;;;;;4974254;28;20996;-73
2022/06/12 06:56:23;;;;;;;1999.90;999.90;;;18.20;99.90;;;;;;4973741;28;20421;-73
2022/06/12 06:58:49;;;;;;;1999.90;999.90;;;18.20;99.90;;;;;;4974262;28;20405;-73
2022/06/12 07:01:14;;;;;;;1999.90;999.90;;;18.20;99.90;;;;;;4974149;28;20469;-73
2022/06/12 07:03:40;;;;;;;1999.90;999.90;;;18.20;99.90;;;;;;4973714;28;20429;-74
2022/06/12 07:06:06;;;;;;;1999.90;999.90;;;18.20;99.90;;;;;;4974388;28;20562;-73
2022/06/12 07:08:31;;;;;;;1999.90;999.90;;;18.30;99.90;;;;;;4974374;28;20226;-73
2022/06/12 07:10:57;;;;;;;1999.90;999.90;;;18.40;99.90;;;;;;4973621;28;20181;-74
2022/06/12 07:13:24;;;;;;;1999.90;999.90;;;18.40;99.90;;;;;;4974061;28;20218;-73
2022/06/12 07:15:50;;;;;;;1999.90;999.90;;;18.50;99.90;;;;;;4974019;28;20181;-74
2022/06/12 07:18:18;;;;;;;1999.90;999.90;;;18.60;99.90;;;;;;4973444;28;20767;-73
2022/06/12 07:20:48;;;;;;;1999.90;999.90;;;18.60;99.90;;;;;;4973234;28;20198;-73
2022/06/12 07:23:17;;;;;;;1999.90;999.90;;;18.70;99.90;;;;;;4973987;28;20403;-73
2022/06/12 07:25:47;;;;;;;1999.90;999.90;;;18.80;99.90;;;;;;4973538;28;20758;-74
2022/06/12 07:28:13;;;;;;;1999.90;999.90;;;18.90;99.90;;;;;;4973596;28;20439;-73
2022/06/12 07:30:39;;;;;;;1999.90;999.90;;;19.00;99.90;;;;;;4973586;28;21108;-73
2022/06/12 07:33:06;;;;;;;1999.90;999.90;;;18.90;99.90;;;;;;4973139;28;20417;-73
2022/06/12 07:35:34;;;;;;;1999.90;999.90;;;18.90;99.90;;;;;;4973649;28;20412;-70
2022/06/12 07:38:01;;;;;;;1999.90;999.90;;;18.90;99.90;;;;;;4973293;28;20426;-73
2022/06/12 07:40:31;;;;;;;1999.90;999.90;;;19.10;99.90;;;;;;4972995;28;20900;-73
2022/06/12 07:42:57;;;;;;;1999.90;999.90;;;19.10;99.90;;;;;;4973477;28;20417;-73
2022/06/12 07:45:22;;;;;;;1999.90;999.90;;;19.10;99.90;;;;;;4973241;28;20453;-73
2022/06/12 07:47:48;;;;;;;1999.90;999.90;;;19.20;99.90;;;;;;4972828;28;20173;-73
2022/06/12 07:50:15;;;;;;;1999.90;999.90;;;19.10;99.90;;;;;;4973400;28;20171;-74
2022/06/12 07:52:41;;;;;;;1999.90;999.90;;;19.00;99.90;;;;;;4973518;28;20535;-73
2022/06/12 07:55:09;;;;;;;1999.90;999.90;;;19.10;99.90;;;;;;4972817;28;20440;-73
2022/06/12 07:57:36;;;;;;;1999.90;999.90;;;19.20;99.90;;;;;;4973026;28;20415;-74
2022/06/12 08:00:04;;;;;;;1999.90;999.90;;;19.10;99.90;;;;;;4973131;28;20422;-74
2022/06/12 08:02:30;;;;;;;1999.90;999.90;;;19.20;99.90;;;;;;4972708;28;20992;-73
2022/06/12 08:04:56;;;;;;;1999.90;999.90;;;19.20;99.90;;;;;;4973055;28;20439;-73
2022/06/12 08:07:22;;;;;;;1999.90;999.90;;;19.20;99.90;;;;;;4972883;28;20459;-74
2022/06/12 08:09:47;;;;;;;1999.90;999.90;;;19.30;99.90;;;;;;4972574;28;20175;-74
2022/06/12 08:12:13;;;;;;;1999.90;999.90;;;19.40;99.90;;;;;;4973081;28;20175;-74
2022/06/12 08:14:38;;;;;;;1999.90;999.90;;;19.50;99.90;;;;;;4972996;28;20661;-74
2022/06/12 08:17:05;;;;;;;1999.90;999.90;;;19.50;99.90;;;;;;4972259;28;20630;-74
2022/06/12 08:22:16;;;;;;;1999.90;999.90;;;19.70;99.90;;;;;;4972977;28;20958;-74
2022/06/12 08:24:43;;;;;;;1999.90;999.90;;;19.80;99.90;;;;;;4972422;28;20431;-74
2022/06/12 08:27:09;;;;;;;1999.90;999.90;;;19.90;99.90;;;;;;4972647;28;20416;-74
2022/06/12 08:29:35;;;;;;;1999.90;999.90;;;20.00;99.90;;;;;;4972915;28;20410;-74
2022/06/12 08:32:05;;;;;;;1999.90;999.90;;;20.10;99.90;;;;;;4972843;28;20909;-74
2022/06/12 08:34:33;;;;;;;1999.90;999.90;;;20.20;99.90;;;;;;4976751;28;20809;-74
2022/06/12 08:37:03;;;;;;;1999.90;999.90;;;20.20;99.90;;;;;;4976576;28;20444;-74
2022/06/12 08:39:29;;;;;;;1999.90;999.90;;;20.30;99.90;;;;;;4976356;28;20750;-73
2022/06/12 08:42:07;;;;;;;1999.90;999.90;;;20.40;99.90;;;;;;4976623;28;20947;-75
2022/06/12 08:44:53;;;;;;;1999.90;999.90;;;20.50;99.90;;;;;;4976397;28;20456;-73
2022/06/12 08:47:24;;;;;;;1999.90;999.90;;;20.40;99.90;;;;;;4975660;28;20508;-71
2022/06/12 08:50:00;;;;;;;1999.90;999.90;;;20.40;99.90;;;;;;4981482;28;20543;-74
2022/06/12 08:52:44;;;;;;;1999.90;999.90;;;20.30;99.90;;;;;;4976813;28;20411;-73
2022/06/12 08:55:26;;;;;;;1999.90;999.90;;;20.30;99.90;;;;;;4976015;28;20422;-74
2022/06/12 08:58:11;;;;;;;1999.90;999.90;;;20.40;99.90;;;;;;4976180;28;20491;-74
2022/06/12 09:00:38;;;;;;;1999.90;999.90;;;20.50;99.90;;;;;;4976409;28;20930;-74
2022/06/12 09:03:11;;;;;;;1999.90;999.90;;;20.70;99.90;;;;;;4975892;28;20408;-74
2022/06/12 09:05:47;;;;;;;1999.90;999.90;;;20.70;99.90;;;;;;4976196;28;20405;-74
2022/06/12 09:08:20;;;;;;;1999.90;999.90;;;20.60;99.90;;;;;;4975962;28;20752;-74
2022/06/12 09:10:57;;;;;;;1999.90;999.90;;;20.60;99.90;;;;;;4975823;28;20391;-74
2022/06/12 09:13:37;;;;;;;1999.90;999.90;;;20.60;99.90;;;;;;4975753;28;20800;-74
2022/06/12 09:16:29;;;;;;;1999.90;999.90;;;20.70;99.90;;;;;;4976088;28;20412;-74
2022/06/12 09:19:16;;;;;;;1999.90;999.90;;;20.80;99.90;;;;;;4976436;28;20405;-74
2022/06/12 09:21:47;;;;;;;1999.90;999.90;;;20.80;99.90;;;;;;4976282;28;20978;-74
2022/06/12 09:24:51;;;;;;;1999.90;999.90;;;20.90;99.90;;;;;;4976188;28;20425;-74
2022/06/12 09:27:22;;;;;;;1999.90;999.90;;;21.10;99.90;;;;;;4959117;28;20415;-74
2022/06/12 09:29:57;;;;;;;1999.90;999.90;;;21.30;99.90;;;;;;4976238;28;20887;-74
2022/06/12 09:32:55;;;;;;;1999.90;999.90;;;21.30;98.70;;;;;;4976390;28;20510;-74
2022/06/12 09:35:30;;;;;;;1999.90;999.90;;;21.40;99.90;;;;;;4975952;28;20423;-74
2022/06/12 09:38:21;;;;;;;1999.90;999.90;;;21.50;99.90;;;;;;4972253;28;20497;-74
2022/06/12 09:40:49;;;;;;;1999.90;999.90;;;21.50;99.90;;;;;;4975945;28;20445;-73
2022/06/12 09:43:32;;;;;;;1999.90;999.90;;;21.60;99.90;;;;;;4975482;28;20502;-74
2022/06/12 09:46:23;;;;;;;1999.90;999.90;;;21.80;99.90;;;;;;4975715;28;20477;-73
2022/06/12 09:49:28;;;;;;;1999.90;999.90;;;21.90;99.90;;;;;;4975886;28;20896;-74
2022/06/12 09:52:15;;;;;;;1999.90;999.90;;;21.90;99.90;;;;;;4975771;28;20454;-74
2022/06/12 09:55:02;;;;;;;1999.90;999.90;;;21.80;99.90;;;;;;4975645;28;20452;-74
2022/06/12 09:57:38;;;;;;;1999.90;999.90;;;21.60;99.90;;;;;;4975313;28;21069;-74
2022/06/12 10:00:10;;;;;;;1999.90;999.90;;;21.60;99.90;;;;;;4975716;28;20412;-74
2022/06/12 10:02:40;;;;;;;1999.90;999.90;;;21.80;99.90;;;;;;4975446;28;20473;-74
2022/06/12 10:05:18;;;;;;;1999.90;999.90;;;22.00;99.90;;;;;;4975504;28;20432;-74
2022/06/12 10:07:54;;;;;;;1999.90;999.90;;;22.10;99.90;;;;;;4975184;28;20411;-74
2022/06/12 10:10:41;;;;;;;1999.90;999.90;;;22.20;99.90;;;;;;4975571;28;20398;-74
2022/06/12 10:13:12;;;;;;;1999.90;999.90;;;22.20;99.90;;;;;;4975047;28;20379;-74
2022/06/12 10:15:43;;;;;;;1999.90;999.90;;;22.10;99.90;;;;;;4975484;28;20405;-74
2022/06/12 10:18:27;;;;;;;1999.90;999.90;;;22.20;99.90;;;;;;4975129;28;20415;-74
2022/06/12 10:21:00;;;;;;;1999.90;999.90;;;22.20;99.90;;;;;;4975197;28;20525;-73
2022/06/12 10:23:26;;;;;;;1999.90;999.90;;;22.20;99.90;;;;;;4975107;28;20509;-74
2022/06/12 10:25:58;;;;;;;1999.90;999.90;;;22.30;99.90;;;;;;4975033;28;20424;-73
2022/06/12 10:28:35;;;;;;;1999.90;999.90;;;22.20;99.90;;;;;;4975189;28;20403;-73
2022/06/12 10:31:10;;;;;;;1999.90;999.90;;;22.20;99.90;;;;;;4975139;28;20494;-74
2022/06/12 10:33:42;;;;;;;1999.90;999.90;;;22.30;99.90;;;;;;4975005;28;20437;-74
2022/06/12 10:36:23;;;;;;;1999.90;999.90;;;22.30;99.90;;;;;;4974554;28;20509;-74
2022/06/12 10:38:49;;;;;;;1999.90;999.90;;;22.30;99.90;;;;;;4975051;28;20410;-74
2022/06/12 10:41:25;;;;;;;1999.90;999.90;;;22.40;99.90;;;;;;4974859;28;20447;-73
2022/06/12 10:43:53;;;;;;;1999.90;999.90;;;22.50;99.90;;;;;;4974700;28;20947;-74
2022/06/12 10:46:30;;;;;;;1999.90;999.90;;;22.50;99.90;;;;;;4974579;28;20420;-74
2022/06/12 10:49:16;;;;;;;1999.90;999.90;;;22.40;99.90;;;;;;4975095;28;20483;-74
2022/06/12 10:51:43;;;;;;;1999.90;999.90;;;22.60;99.90;;;;;;4974758;28;20474;-74
2022/06/12 10:54:17;;;;;;;1999.90;999.90;;;22.60;99.90;;;;;;4974504;28;20991;-74
2022/06/12 10:56:46;;;;;;;1999.90;999.90;;;22.70;99.90;;;;;;4973878;28;20750;-73
2022/06/12 10:59:35;;;;;;;1999.90;999.90;;;22.70;99.90;;;;;;4974528;28;20427;-74
2022/06/12 11:02:06;;;;;;;1999.90;999.90;;;22.80;99.90;;;;;;4974449;28;20431;-74
2022/06/12 11:05:08;;;;;;;1999.90;999.90;;;23.00;99.90;;;;;;4974322;28;20429;-74
2022/06/12 11:07:57;;;;;;;1999.90;999.90;;;23.10;99.90;;;;;;4974236;28;20396;-73
2022/06/12 11:10:51;;;;;;;1999.90;999.90;;;22.90;99.90;;;;;;4974589;28;20485;-74
2022/06/12 11:13:29;;;;;;;1999.90;999.90;;;22.80;99.90;;;;;;4973726;28;20395;-73
2022/06/12 11:16:12;;;;;;;1999.90;999.90;;;22.70;99.90;;;;;;4974091;28;20383;-75
2022/06/12 11:18:45;;;;;;;1999.90;999.90;;;23.00;99.90;;;;;;4974253;28;20420;-74
2022/06/12 11:21:23;;;;;;;1999.90;999.90;;;23.10;99.90;;;;;;4974106;28;20443;-74
2022/06/12 11:24:33;;;;;;;1999.90;999.90;;;22.90;99.90;;;;;;4974066;28;20396;-74
2022/06/12 11:27:20;;;;;;;1999.90;999.90;;;22.80;99.90;;;;;;4914037;29;20394;-74
2022/06/12 11:29:48;;;;;;;1999.90;999.90;;;22.90;99.90;;;;;;4970197;28;20849;-74
2022/06/12 11:32:32;;;;;;;1999.90;999.90;;;23.00;99.90;;;;;;4973974;28;20914;-74
2022/06/12 11:35:30;;;;;;;1999.90;999.90;;;23.50;99.90;;;;;;4973858;28;20429;-74
2022/06/12 11:38:20;;;;;;;1999.90;999.90;;;23.70;99.90;;;;;;4961973;28;20429;-73
2022/06/12 11:40:58;;;;;;;1999.90;999.90;;;23.40;99.90;;;;;;4973756;28;20474;-74
2022/06/12 11:43:31;;;;;;;1999.90;999.90;;;23.50;99.90;;;;;;4973579;28;20448;-74
2022/06/12 11:46:02;;;;;;;1999.90;999.90;;;23.50;99.90;;;;;;4973610;28;20455;-73
2022/06/12 11:48:46;;;;;;;1999.90;999.90;;;23.40;99.90;;;;;;4973792;28;20729;-75
2022/06/12 11:51:42;;;;;;;1999.90;999.90;;;23.30;99.90;;;;;;4973563;28;20388;-74
2022/06/12 11:54:27;;;;;;;1999.90;999.90;;;23.60;99.90;;;;;;4973704;28;20421;-74
2022/06/12 11:57:01;;;;;;;1999.90;999.90;;;23.80;99.90;;;;;;4973437;28;20437;-74
2022/06/12 11:59:50;;;;;;;1999.90;999.90;;;23.90;99.90;;;;;;4973578;28;20505;-74
2022/06/12 12:02:43;;;;;;;1999.90;999.90;;;24.20;99.90;;;;;;4973458;28;20467;-74
2022/06/12 12:05:45;;;;;;;1999.90;999.90;;;24.40;99.90;;;;;;4973408;28;20841;-74
2022/06/12 12:08:52;;;;;;;1999.90;999.90;;;24.80;99.90;;;;;;4973213;28;20411;-74
2022/06/12 12:11:25;;;;;;;1999.90;999.90;;;25.60;99.60;;;;;;4953180;28;21008;-74
2022/06/12 12:13:55;;;;;;;1999.90;999.90;;;26.50;93.90;;;;;;4973392;28;20411;-74
2022/06/12 12:16:48;;;;;;;1999.90;999.90;;;27.00;85.90;;;;;;4973287;28;20406;-75
2022/06/12 12:19:32;;;;;;;1999.90;999.90;;;27.60;69.30;;;;;;4973345;28;20414;-75
2022/06/12 12:21:59;;;;;;;1999.90;999.90;;;28.30;65.50;;;;;;4973261;28;20456;-76
2022/06/12 12:24:33;;;;;;;1999.90;999.90;;;28.50;57.00;;;;;;4973169;28;20907;-75
2022/06/12 12:27:05;;;;;;;1999.90;999.90;;;28.30;57.80;;;;;;4972994;28;20409;-76
2022/06/12 12:29:34;;;;;;;1999.90;999.90;;;28.20;50.80;;;;;;4973413;28;20409;-75
2022/06/12 12:32:04;;;;;;;1999.90;999.90;;;27.50;47.80;;;;;;4973155;28;20496;-76
2022/06/12 12:34:31;;;;;;;1999.90;999.90;;;27.30;51.90;;;;;;4973076;28;20798;-76
2022/06/12 12:42:36;;;;;;;1999.90;999.90;;;27.90;49.70;;;;;;4973107;28;20504;-76
2022/06/12 12:45:29;;;;;;;1999.90;999.90;;;27.70;47.20;;;;;;4972940;28;20452;-76
2022/06/12 12:48:05;;;;;;;1999.90;999.90;;;27.20;51.50;;;;;;4972751;28;20409;-75
2022/06/12 12:50:46;;;;;;;1999.90;999.90;;;27.20;51.40;;;;;;4973150;28;20413;-76